Time;durP1;ratioP1;P1;durP2;ratioP2;P2;SDS_P1;SDS_P2;PMS_P1;PMS_P2;Temp;Humidity;BMP_temperature;BMP_pressure;BME280_temperature;BME280_humidity;BME280_pressure;Samples;Min_cycle;Max_cycle;Signal;HPM_P1;HPM_P2
2021/01/25 00:01:52;;;;;;;;;6.00;3.50;;;;;13.01;48.95;96603.47;4858418;28;102438;-76
2021/01/25 00:04:19;;;;;;;;;4.00;4.00;;;;;13.00;49.27;96603.75;4864491;28;104494;-76
2021/01/25 00:06:46;;;;;;;;;4.00;4.00;;;;;12.97;49.13;96613.19;4859224;28;104078;-76
2021/01/25 00:09:13;;;;;;;;;3.25;3.25;;;;;12.98;49.06;96612.13;4820061;28;105502;-76
2021/01/25 00:11:39;;;;;;;;;4.50;3.25;;;;;12.98;48.84;96609.41;4866882;28;102654;-76
2021/01/25 00:14:06;;;;;;;;;5.50;3.50;;;;;12.96;49.03;96606.16;4828756;28;103821;-76
2021/01/25 00:16:33;;;;;;;;;4.00;4.00;;;;;12.95;49.32;96608.06;4823219;28;103282;-76
2021/01/25 00:18:59;;;;;;;;;4.00;3.00;;;;;12.97;48.14;96605.06;4860834;28;102352;-76
2021/01/25 00:21:26;;;;;;;;;3.25;3.00;;;;;12.96;49.08;96600.75;4846011;28;102418;-76
2021/01/25 00:23:53;;;;;;;;;5.00;4.00;;;;;12.94;49.11;96595.56;4854526;28;103691;-76
2021/01/25 00:26:19;;;;;;;;;2.00;2.00;;;;;12.93;48.90;96593.13;4859739;28;103572;-76
2021/01/25 00:28:46;;;;;;;;;6.00;4.00;;;;;12.95;48.92;96599.09;4841617;28;103357;-76
2021/01/25 00:31:13;;;;;;;;;5.50;4.75;;;;;12.94;48.31;96600.19;4860046;28;103213;-76
2021/01/25 00:33:40;;;;;;;;;6.50;4.00;;;;;12.90;48.85;96589.03;4849693;28;102561;-76
2021/01/25 00:36:07;;;;;;;;;3.75;3.00;;;;;12.92;48.34;96595.00;4845847;28;103454;-76
2021/01/25 00:38:33;;;;;;;;;5.50;3.00;;;;;12.90;48.36;96599.91;4831143;28;103802;-76
2021/01/25 00:41:00;;;;;;;;;3.00;3.00;;;;;12.89;48.49;96597.44;4817591;28;102409;-76
2021/01/25 00:43:27;;;;;;;;;4.25;3.00;;;;;12.90;48.28;96593.66;4845545;28;102706;-76
2021/01/25 00:45:54;;;;;;;;;3.50;3.50;;;;;12.90;48.56;96593.66;4840637;28;103979;-76
2021/01/25 00:48:21;;;;;;;;;5.00;4.00;;;;;12.90;49.06;96601.78;4846939;28;102511;-76
2021/01/25 00:50:47;;;;;;;;;3.25;3.25;;;;;12.88;48.98;96591.19;4833224;28;102416;-76
2021/01/25 00:53:14;;;;;;;;;4.00;3.00;;;;;12.88;48.38;96590.38;4826375;28;104919;-76
2021/01/25 00:55:41;;;;;;;;;4.00;3.75;;;;;12.88;48.30;96593.09;4843881;28;103395;-76
2021/01/25 00:58:07;;;;;;;;;3.50;3.00;;;;;12.87;48.89;96586.06;4855364;28;102440;-76
2021/01/25 01:00:35;;;;;;;;;7.00;4.00;;;;;12.87;48.38;96580.63;4858465;28;103154;-76
2021/01/25 01:03:02;;;;;;;;;3.50;3.00;;;;;12.87;48.70;96577.91;4851452;28;102524;-76
2021/01/25 01:05:30;;;;;;;;;5.00;3.50;;;;;12.85;48.02;96575.47;4838775;28;103058;-76
2021/01/25 01:08:00;;;;;;;;;3.00;3.00;;;;;12.85;48.16;96580.06;4833705;28;102515;-76
2021/01/25 01:10:31;;;;;;;;;3.50;3.00;;;;;12.84;48.95;96583.84;4860660;28;102436;-76
2021/01/25 01:12:57;;;;;;;;;4.75;3.75;;;;;12.83;48.30;96583.03;4842308;28;102459;-76
2021/01/25 01:15:24;;;;;;;;;4.00;3.25;;;;;12.83;48.61;96582.25;4846773;28;104206;-76
2021/01/25 01:17:51;;;;;;;;;5.25;4.25;;;;;12.83;48.68;96584.97;4842049;28;102652;-76
2021/01/25 01:20:18;;;;;;;;;4.50;3.25;;;;;12.82;48.08;96589.56;4828538;28;102546;-76
2021/01/25 01:22:45;;;;;;;;;3.00;3.00;;;;;12.81;49.07;96585.22;4852346;28;104410;-76
2021/01/25 01:25:11;;;;;;;;;2.75;2.00;;;;;12.79;48.79;96581.94;4866903;28;103402;-76
2021/01/25 01:27:39;;;;;;;;;3.50;3.50;;;;;12.81;48.13;96596.06;4869852;28;103870;-76
2021/01/25 01:30:06;;;;;;;;;5.25;3.75;;;;;12.80;48.58;96585.47;4856265;28;102386;-76
2021/01/25 01:32:34;;;;;;;;;4.50;4.00;;;;;12.79;47.86;96584.66;4842253;28;102512;-76
2021/01/25 01:35:02;;;;;;;;;3.00;3.00;;;;;12.80;48.07;96585.47;4866356;28;102888;-76
2021/01/25 01:37:29;;;;;;;;;4.00;3.00;;;;;12.77;48.66;96578.69;4846087;28;103909;-76
2021/01/25 01:39:55;;;;;;;;;3.00;3.00;;;;;12.78;47.96;96587.63;4859360;28;102372;-76
2021/01/25 01:42:22;;;;;;;;;1.00;0.50;;;;;12.78;48.46;96585.75;4847568;28;102520;-76
2021/01/25 01:44:49;;;;;;;;;5.50;3.75;;;;;12.77;48.10;96578.69;4864090;28;104113;-76
2021/01/25 01:47:18;;;;;;;;;4.75;2.75;;;;;12.76;48.89;96573.50;4847357;28;102591;-76
2021/01/25 01:49:45;;;;;;;;;5.00;3.50;;;;;12.76;48.35;96578.94;4829413;28;102406;-76
2021/01/25 01:52:12;;;;;;;;;3.50;3.50;;;;;12.77;48.87;96577.88;4849788;28;102535;-76
2021/01/25 01:54:39;;;;;;;;;4.50;4.00;;;;;12.76;48.24;96581.66;4850086;28;103689;-76
2021/01/25 01:57:06;;;;;;;;;3.50;3.50;;;;;12.74;48.71;96576.47;4846238;28;104141;-76
2021/01/25 01:59:33;;;;;;;;;5.75;3.50;;;;;12.74;48.47;96571.06;4864250;28;103389;-76
2021/01/25 02:02:00;;;;;;;;;4.75;3.50;;;;;12.74;48.76;96567.56;4839306;28;102661;-76
2021/01/25 02:04:27;;;;;;;;;4.25;2.00;;;;;12.74;48.30;96572.97;4830895;28;106237;-76
2021/01/25 02:06:55;;;;;;;;;3.00;3.00;;;;;12.71;48.87;96568.06;4819923;28;102376;-76
2021/01/25 02:09:23;;;;;;;;;3.75;3.75;;;;;12.72;48.23;96573.22;4828101;28;105372;-76
2021/01/25 02:11:51;;;;;;;;;3.25;3.25;;;;;12.71;48.49;96570.78;4845891;28;102556;-76
2021/01/25 02:14:20;;;;;;;;;4.00;3.00;;;;;12.71;48.14;96560.75;4859112;28;102451;-76
2021/01/25 02:16:48;;;;;;;;;5.25;3.50;;;;;12.72;48.07;96569.69;4843815;28;102399;-76
2021/01/25 02:19:55;;;;;;;;;4.75;3.75;;;;;12.70;48.49;96567.25;4851163;28;103320;-76
2021/01/25 02:22:32;;;;;;;;;4.00;4.00;;;;;12.68;48.23;96565.88;4787421;28;102324;-76
2021/01/25 02:25:41;;;;;;;;;3.00;3.00;;;;;12.70;48.15;96571.88;4824057;28;103036;-76
2021/01/25 02:28:10;;;;;;;;;4.00;3.00;;;;;12.69;47.90;96578.38;4731295;28;104426;-76
2021/01/25 02:30:39;;;;;;;;;3.25;3.00;;;;;12.69;48.64;96581.09;4851941;28;102679;-76
2021/01/25 02:33:08;;;;;;;;;4.00;3.00;;;;;12.67;48.05;96584.06;4841483;28;102379;-76
2021/01/25 02:35:37;;;;;;;;;2.75;2.50;;;;;12.68;48.62;96590.28;4836580;28;103232;-76
2021/01/25 02:38:08;;;;;;;;;5.75;4.50;;;;;12.66;48.48;96587.00;4839352;28;102414;-76
2021/01/25 02:40:37;;;;;;;;;5.00;3.50;;;;;12.66;47.98;96589.72;4829330;28;102495;-76
2021/01/25 02:43:06;;;;;;;;;5.75;3.75;;;;;12.66;48.12;96592.44;4843113;28;102512;-76
2021/01/25 02:45:35;;;;;;;;;5.00;4.00;;;;;12.65;48.64;96594.34;4811856;28;103373;-76
2021/01/25 02:48:03;;;;;;;;;5.50;3.75;;;;;12.66;47.58;96601.38;4839204;28;104355;-76
2021/01/25 02:50:30;;;;;;;;;4.25;3.00;;;;;12.64;48.07;96600.84;4841397;28;102286;-76
2021/01/25 02:52:56;;;;;;;;;3.00;3.00;;;;;12.65;48.10;96601.69;4845225;28;102445;-76
2021/01/25 02:55:23;;;;;;;;;2.00;2.00;;;;;12.64;48.60;96610.88;4841073;28;103823;-76
2021/01/25 02:57:50;;;;;;;;;1.75;1.00;;;;;12.63;47.97;96604.63;4838002;28;102463;-76
2021/01/25 03:00:17;;;;;;;;;4.75;3.00;;;;;12.63;48.25;96604.63;4827226;28;104521;-76
2021/01/25 03:02:44;;;;;;;;;4.00;3.00;;;;;12.62;48.45;96608.41;4847592;28;102578;-76
2021/01/25 03:05:11;;;;;;;;;4.00;3.75;;;;;12.62;47.99;96608.41;4809220;28;103279;-76
2021/01/25 03:07:38;;;;;;;;;4.00;3.50;;;;;12.61;48.33;96617.63;4829234;28;102521;-76
2021/01/25 03:10:05;;;;;;;;;4.00;3.00;;;;;12.61;47.82;96612.19;4834560;28;103636;-76
2021/01/25 03:12:32;;;;;;;;;5.25;2.00;;;;;12.62;47.98;96623.88;4843101;28;102489;-76
2021/01/25 03:14:59;;;;;;;;;6.50;2.75;;;;;12.60;48.27;96618.72;4843124;28;103009;-76
2021/01/25 03:17:26;;;;;;;;;4.00;3.00;;;;;12.61;47.76;96616.84;4841993;28;102774;-76
2021/01/25 03:19:53;;;;;;;;;3.75;2.00;;;;;12.61;47.87;96611.41;4843361;28;103105;-76
2021/01/25 03:22:19;;;;;;;;;3.25;3.25;;;;;12.60;48.39;96624.16;4815613;28;104372;-76
2021/01/25 03:24:46;;;;;;;;;4.25;2.50;;;;;12.59;48.20;96614.38;4847392;28;103373;-76
2021/01/25 03:27:13;;;;;;;;;4.00;4.00;;;;;12.59;48.17;96618.97;4838973;28;102355;-76
2021/01/25 03:29:39;;;;;;;;;3.75;3.25;;;;;12.56;48.35;96609.50;4830116;28;102228;-76
2021/01/25 03:32:06;;;;;;;;;3.75;2.75;;;;;12.58;48.36;96615.44;4848535;28;102516;-76
2021/01/25 03:34:33;;;;;;;;;2.75;2.75;;;;;12.56;47.74;96623.03;4847639;28;103367;-76
2021/01/25 03:37:00;;;;;;;;;4.50;4.00;;;;;12.56;48.39;96616.81;4869766;28;102430;-76
2021/01/25 03:39:27;;;;;;;;;3.75;3.75;;;;;12.55;47.82;96618.69;4862918;28;103007;-76
2021/01/25 03:41:54;;;;;;;;;3.00;3.00;;;;;12.55;48.12;96609.75;4863907;28;103281;-76
2021/01/25 03:44:20;;;;;;;;;4.50;4.00;;;;;12.55;48.22;96613.28;4867723;28;103771;-76
2021/01/25 03:46:47;;;;;;;;;5.00;3.75;;;;;12.55;47.69;96615.16;4872322;28;103319;-76
2021/01/25 03:49:15;;;;;;;;;3.25;2.75;;;;;12.53;48.04;96616.22;4869802;28;103500;-76
2021/01/25 03:51:41;;;;;;;;;4.00;3.00;;;;;12.53;48.25;96620.84;4872497;28;103574;-76
2021/01/25 03:54:12;;;;;;;;;3.00;3.00;;;;;12.52;48.24;96620.00;4830424;28;103694;-76
2021/01/25 03:56:39;;;;;;;;;4.00;3.00;;;;;12.50;48.20;96616.78;4853006;28;102434;-76
2021/01/25 03:59:06;;;;;;;;;2.25;2.00;;;;;12.51;48.29;96623.84;4852893;28;102580;-76
2021/01/25 04:01:33;;;;;;;;;3.75;3.00;;;;;12.52;48.44;96622.72;4868266;28;102614;-76
2021/01/25 04:04:00;;;;;;;;;4.00;3.00;;;;;12.51;47.69;96625.72;4837903;28;103184;-76
2021/01/25 04:06:27;;;;;;;;;2.75;2.00;;;;;12.50;47.58;96616.78;4865685;28;103274;-76
2021/01/25 04:08:53;;;;;;;;;2.00;2.00;;;;;12.50;47.96;96624.09;4869102;28;103176;-76
2021/01/25 04:11:20;;;;;;;;;2.50;2.50;;;;;12.50;47.99;96622.19;4849309;28;103364;-76
2021/01/25 04:13:47;;;;;;;;;5.00;4.00;;;;;12.48;47.96;96621.63;4864113;28;103936;-76
2021/01/25 04:16:13;;;;;;;;;4.00;4.00;;;;;12.50;48.26;96618.66;4867059;28;103185;-76
2021/01/25 04:18:41;;;;;;;;;4.75;3.00;;;;;12.48;48.22;96613.50;4865990;28;102344;-76
2021/01/25 04:21:07;;;;;;;;;3.50;3.00;;;;;12.47;48.17;96605.63;4864811;28;102568;-76
2021/01/25 04:23:34;;;;;;;;;3.00;3.00;;;;;12.48;47.50;96618.91;4846629;28;103918;-76
2021/01/25 04:26:01;;;;;;;;;3.25;3.25;;;;;12.47;47.86;96611.84;4852836;28;103470;-76
2021/01/25 04:28:28;;;;;;;;;3.50;3.25;;;;;12.46;48.12;96610.25;4864998;28;104067;-76
2021/01/25 04:30:54;;;;;;;;;3.00;3.00;;;;;12.46;47.80;96604.81;4845330;28;103673;-76
2021/01/25 04:33:21;;;;;;;;;4.25;3.25;;;;;12.46;47.79;96604.81;4855431;28;103637;-76
2021/01/25 04:35:48;;;;;;;;;3.00;2.00;;;;;12.46;48.41;96602.09;4846842;28;102761;-76
2021/01/25 04:38:14;;;;;;;;;5.00;4.00;;;;;12.45;48.51;96600.47;4832518;28;102456;-76
2021/01/25 04:40:41;;;;;;;;;4.00;3.00;;;;;12.45;48.17;96602.38;4841956;28;102546;-76
2021/01/25 04:43:08;;;;;;;;;4.00;3.75;;;;;12.45;47.65;96611.31;4834498;28;103868;-76
2021/01/25 04:45:34;;;;;;;;;4.75;3.75;;;;;12.45;47.69;96616.72;4805635;28;104805;-76
2021/01/25 04:48:01;;;;;;;;;5.00;3.50;;;;;12.46;47.40;96622.97;4841499;28;102495;-77
2021/01/25 04:50:30;;;;;;;;;5.50;3.00;;;;;12.45;47.78;96621.34;4839861;28;103267;-76
2021/01/25 04:52:57;;;;;;;;;4.00;4.00;;;;;12.45;48.05;96613.19;4833745;28;103201;-76
2021/01/25 04:55:24;;;;;;;;;3.00;3.00;;;;;12.44;47.95;96619.69;4841445;28;102379;-76
2021/01/25 04:57:51;;;;;;;;;4.50;3.75;;;;;12.44;48.11;96625.13;4822177;28;102975;-76
2021/01/25 05:00:18;;;;;;;;;4.00;4.00;;;;;12.44;47.80;96617.81;4845726;28;102501;-76
2021/01/25 05:02:45;;;;;;;;;3.50;3.50;;;;;12.44;48.21;96623.22;4841500;28;108370;-76
2021/01/25 05:05:12;;;;;;;;;2.00;2.00;;;;;12.44;48.15;96614.28;4832435;28;102458;-76
2021/01/25 05:07:39;;;;;;;;;4.75;4.75;;;;;12.43;47.87;96613.44;4845808;28;102668;-76
2021/01/25 05:10:06;;;;;;;;;4.00;3.00;;;;;12.42;48.03;96598.28;4840203;28;102508;-76
2021/01/25 05:12:47;;;;;;;;;2.00;2.00;;;;;12.41;47.42;96599.38;4832190;28;104252;-76
2021/01/25 05:15:24;;;;;;;;;4.00;3.00;;;;;12.44;47.17;96606.13;4850020;28;102357;-76
2021/01/25 05:17:51;;;;;;;;;3.00;3.00;;;;;12.43;48.00;96604.50;4843445;28;102434;-76
2021/01/25 05:20:22;;;;;;;;;4.00;3.00;;;;;12.43;47.90;96612.63;4862352;28;103139;-76
2021/01/25 05:22:49;;;;;;;;;4.50;3.00;;;;;12.42;47.97;96608.31;4846511;28;108088;-76
2021/01/25 05:25:36;;;;;;;;;4.75;4.00;;;;;12.42;47.92;96609.13;4849361;28;102400;-76
2021/01/25 05:28:06;;;;;;;;;4.50;4.00;;;;;12.41;47.12;96607.50;4797188;28;102448;-76
2021/01/25 05:30:34;;;;;;;;;1.50;1.00;;;;;12.41;47.99;96615.63;4843825;28;102597;-76
2021/01/25 05:33:01;;;;;;;;;3.00;3.00;;;;;12.40;48.08;96602.31;4839614;28;103378;-76
2021/01/25 05:35:29;;;;;;;;;3.00;2.75;;;;;12.40;48.11;96605.03;4855731;28;103774;-76
2021/01/25 05:38:03;;;;;;;;;3.00;3.00;;;;;12.41;47.54;96606.69;4830034;28;106936;-76
2021/01/25 05:40:31;;;;;;;;;3.75;3.00;;;;;12.40;47.29;96605.03;4857332;28;102374;-76
2021/01/25 05:42:58;;;;;;;;;5.00;4.00;;;;;12.40;47.27;96616.69;4851045;28;104111;-77
2021/01/25 05:45:28;;;;;;;;;5.00;3.00;;;;;12.39;48.24;96611.53;4865723;28;103467;-76
2021/01/25 05:47:56;;;;;;;;;3.00;3.00;;;;;12.38;47.49;96621.53;4837659;28;102588;-76
2021/01/25 05:50:32;;;;;;;;;3.00;2.75;;;;;12.38;47.95;96616.13;4827091;28;104576;-76
2021/01/25 05:53:00;;;;;;;;;5.00;3.00;;;;;12.38;47.57;96629.69;4863396;28;104501;-76
2021/01/25 05:55:28;;;;;;;;;4.00;3.75;;;;;12.37;47.71;96630.78;4867177;28;102304;-76
2021/01/25 05:57:55;;;;;;;;;3.50;3.00;;;;;12.38;47.81;96629.69;4855607;28;102433;-76
2021/01/25 06:00:23;;;;;;;;;3.00;2.00;;;;;12.38;47.59;96628.88;4863510;28;104586;-76
2021/01/25 06:02:50;;;;;;;;;3.00;3.00;;;;;12.36;47.42;96631.84;4865270;28;103040;-76
2021/01/25 06:05:35;;;;;;;;;4.00;2.75;;;;;12.37;48.04;96635.38;4859000;28;102502;-76
2021/01/25 06:08:48;;;;;;;;;5.50;3.50;;;;;12.33;47.43;96631.56;4703563;28;102383;-76
2021/01/25 06:11:28;;;;;;;;;4.50;3.00;;;;;12.36;47.49;96639.16;4709036;28;104804;-76
2021/01/25 06:14:07;;;;;;;;;3.00;2.00;;;;;12.35;47.95;96657.31;4785606;28;108262;-76
2021/01/25 06:16:35;;;;;;;;;3.00;3.00;;;;;12.34;47.52;96652.13;4653354;28;103344;-76
2021/01/25 06:19:07;;;;;;;;;3.50;3.00;;;;;12.34;47.62;96642.13;4622849;28;103946;-76
2021/01/25 06:21:34;;;;;;;;;4.75;3.75;;;;;12.33;48.03;96654.06;4837817;28;102354;-76
2021/01/25 06:24:02;;;;;;;;;3.00;2.75;;;;;12.33;47.30;96643.22;4859177;28;108050;-76
2021/01/25 06:26:32;;;;;;;;;3.75;3.00;;;;;12.34;47.34;96649.44;4868222;28;103145;-76
2021/01/25 06:29:02;;;;;;;;;2.00;1.50;;;;;12.33;47.66;96648.63;4862073;28;104521;-76
2021/01/25 06:31:36;;;;;;;;;3.50;3.50;;;;;12.33;47.30;96655.94;4870066;28;103329;-76
2021/01/25 06:34:04;;;;;;;;;4.00;3.25;;;;;12.32;47.34;96665.97;4850222;28;108513;-76
2021/01/25 06:36:35;;;;;;;;;4.75;4.00;;;;;12.31;47.58;96652.66;4871317;28;102321;-76
2021/01/25 06:39:04;;;;;;;;;2.75;2.75;;;;;12.31;47.33;96667.03;4839804;28;102510;-77
2021/01/25 06:41:39;;;;;;;;;3.00;2.25;;;;;12.30;47.62;96670.81;4850072;28;102840;-76
2021/01/25 06:44:06;;;;;;;;;4.00;3.75;;;;;12.31;47.98;96677.06;4870904;28;107970;-76
2021/01/25 06:46:34;;;;;;;;;5.25;4.00;;;;;12.30;47.58;96676.22;4854908;28;102582;-76
2021/01/25 06:49:01;;;;;;;;;5.75;3.25;;;;;12.30;47.27;96676.22;4865919;28;104298;-75
2021/01/25 06:51:28;;;;;;;;;5.50;3.75;;;;;12.28;47.85;96672.97;4875230;28;102456;-76
2021/01/25 06:53:54;;;;;;;;;5.25;3.75;;;;;12.29;47.15;96674.59;4850785;28;103415;-76
2021/01/25 06:56:21;;;;;;;;;3.25;2.50;;;;;12.29;47.50;96680.00;4854331;28;102458;-76
2021/01/25 06:58:49;;;;;;;;;5.75;3.25;;;;;12.28;47.52;96672.97;4872865;28;104386;-76
2021/01/25 07:01:20;;;;;;;;;4.25;3.25;;;;;12.24;48.20;96671.88;4854649;28;110791;-76
2021/01/25 07:03:50;;;;;;;;;3.75;3.00;;;;;12.29;47.21;96668.38;4869781;28;103580;-75
2021/01/25 07:06:17;;;;;;;;;5.00;3.50;;;;;12.28;47.85;96667.56;4872180;28;102484;-76
2021/01/25 07:08:56;;;;;;;;;3.50;3.25;;;;;12.26;47.58;96666.16;4864162;28;102221;-76
2021/01/25 07:11:24;;;;;;;;;4.00;3.00;;;;;12.27;47.61;96671.34;4855522;28;102354;-76
2021/01/25 07:13:52;;;;;;;;;3.50;3.50;;;;;12.26;47.57;96669.69;4873131;28;103743;-76
2021/01/25 07:16:18;;;;;;;;;3.00;3.00;;;;;12.25;47.84;96659.94;4873225;28;103570;-76
2021/01/25 07:18:49;;;;;;;;;4.00;4.00;;;;;12.23;47.95;96670.22;4873648;28;102428;-76
2021/01/25 07:21:17;;;;;;;;;5.25;2.25;;;;;12.23;47.94;96667.53;4870205;28;110462;-76
2021/01/25 07:23:44;;;;;;;;;4.00;4.00;;;;;12.24;47.68;96666.44;4837066;28;103567;-76
2021/01/25 07:26:11;;;;;;;;;4.00;4.00;;;;;12.25;47.54;96667.25;4870784;28;102533;-76
2021/01/25 07:28:38;;;;;;;;;3.00;3.00;;;;;12.22;47.93;96674.00;4851788;28;103227;-76
2021/01/25 07:31:05;;;;;;;;;3.50;3.00;;;;;12.24;47.71;96671.88;4872194;28;102507;-76
2021/01/25 07:33:32;;;;;;;;;4.75;4.00;;;;;12.22;47.32;96660.47;4872177;28;108701;-76
2021/01/25 07:35:59;;;;;;;;;4.75;3.00;;;;;12.24;47.73;96665.63;4850392;28;103759;-76
2021/01/25 07:38:29;;;;;;;;;2.75;2.50;;;;;12.23;47.99;96670.22;4844101;28;102459;-76
2021/01/25 07:40:59;;;;;;;;;3.75;3.00;;;;;12.22;47.96;96665.88;4857750;28;102505;-76
2021/01/25 07:43:28;;;;;;;;;2.25;2.25;;;;;12.23;47.88;96669.41;4851343;28;104300;-76
2021/01/25 07:46:15;;;;;;;;;4.00;3.00;;;;;12.24;47.31;96673.75;4855188;28;102472;-76
2021/01/25 07:48:51;;;;;;;;;3.00;2.25;;;;;12.22;47.41;96671.31;4774735;28;102502;-77
2021/01/25 07:51:25;;;;;;;;;5.00;3.25;;;;;12.21;47.63;96672.38;4849153;28;104682;-76
2021/01/25 07:53:52;;;;;;;;;3.00;2.75;;;;;12.22;47.65;96678.59;4854167;28;103282;-76
2021/01/25 07:56:20;;;;;;;;;4.75;4.00;;;;;12.21;47.71;96688.63;4869603;28;102605;-76
2021/01/25 07:58:47;;;;;;;;;3.00;2.50;;;;;12.21;48.04;96685.09;4844010;28;105341;-76
2021/01/25 08:01:23;;;;;;;;;3.00;3.00;;;;;12.20;47.14;96689.72;4836331;28;102461;-76
2021/01/25 08:03:51;;;;;;;;;4.00;2.25;;;;;12.18;47.44;96691.03;4848732;28;103531;-76
2021/01/25 08:06:33;;;;;;;;;3.75;3.75;;;;;12.21;47.77;96699.47;4848207;28;102581;-76
2021/01/25 08:09:04;;;;;;;;;3.75;3.50;;;;;12.19;47.24;96696.22;4853387;28;102289;-76
2021/01/25 08:11:32;;;;;;;;;2.00;2.00;;;;;12.20;47.28;96691.63;4838664;28;102498;-76
2021/01/25 08:14:06;;;;;;;;;2.00;2.00;;;;;12.19;47.27;96696.22;4836724;28;103274;-76
2021/01/25 08:16:35;;;;;;;;;3.00;2.75;;;;;12.19;47.42;96690.78;4840327;28;102973;-76
2021/01/25 08:19:19;;;;;;;;;2.00;2.00;;;;;12.19;47.78;96698.91;4853511;28;103254;-76
2021/01/25 08:22:02;;;;;;;;;4.00;3.25;;;;;12.19;47.63;96693.50;4729558;28;102630;-76
2021/01/25 08:24:32;;;;;;;;;2.50;2.00;;;;;12.18;47.91;96694.56;4841335;28;103719;-76
2021/01/25 08:27:12;;;;;;;;;3.50;2.00;;;;;12.19;47.78;96700.81;4848289;28;102575;-76
2021/01/25 08:29:39;;;;;;;;;3.00;3.00;;;;;12.18;47.61;96697.28;4832839;28;102494;-76
2021/01/25 08:32:13;;;;;;;;;4.00;2.25;;;;;12.18;47.79;96702.69;4855088;28;102421;-76
2021/01/25 08:34:40;;;;;;;;;2.75;2.75;;;;;12.17;47.18;96708.38;4859389;28;108666;-76
2021/01/25 08:37:09;;;;;;;;;2.50;2.00;;;;;12.16;47.29;96704.03;4840738;28;106840;-76
2021/01/25 08:39:42;;;;;;;;;3.00;2.00;;;;;12.16;47.51;96710.25;4838742;28;102361;-76
2021/01/25 08:42:30;;;;;;;;;3.75;2.50;;;;;12.16;47.48;96704.84;4857115;28;102501;-76
2021/01/25 08:45:04;;;;;;;;;4.00;3.00;;;;;12.16;47.91;96706.75;4855662;28;104016;-76
2021/01/25 08:47:32;;;;;;;;;3.75;3.00;;;;;12.15;47.59;96697.81;4872940;28;102412;-76
2021/01/25 08:49:59;;;;;;;;;3.75;3.75;;;;;12.15;47.65;96708.63;4857260;28;102536;-76
2021/01/25 08:52:39;;;;;;;;;2.50;2.50;;;;;12.16;46.89;96706.75;4841608;28;102647;-76
2021/01/25 08:55:12;;;;;;;;;3.00;3.00;;;;;12.15;47.31;96707.81;4856873;28;108139;-76
2021/01/25 08:57:40;;;;;;;;;3.00;3.00;;;;;12.13;47.80;96705.34;4869457;28;102746;-76
2021/01/25 09:00:14;;;;;;;;;2.75;2.50;;;;;12.12;47.20;96706.41;4860791;28;102531;-76
2021/01/25 09:02:40;;;;;;;;;3.50;3.00;;;;;12.14;47.59;96712.41;4858648;28;102553;-76
2021/01/25 09:05:08;;;;;;;;;2.75;2.75;;;;;12.13;48.06;96713.47;4876278;28;103696;-76
2021/01/25 09:07:35;;;;;;;;;1.50;1.00;;;;;12.13;47.16;96713.47;4875985;28;102524;-76
2021/01/25 09:10:03;;;;;;;;;1.25;1.00;;;;;12.13;47.83;96724.31;4856916;28;104218;-76
2021/01/25 09:12:30;;;;;;;;;5.00;2.00;;;;;12.13;47.54;96728.91;4870794;28;102432;-76
2021/01/25 09:14:57;;;;;;;;;2.25;2.25;;;;;12.11;47.31;96718.38;4864197;28;105634;-76
2021/01/25 09:17:24;;;;;;;;;3.25;2.00;;;;;12.13;47.61;96720.78;4856285;28;102432;-76
2021/01/25 09:19:51;;;;;;;;;3.50;3.00;;;;;12.13;47.26;96728.91;4855955;28;102334;-76
2021/01/25 09:22:18;;;;;;;;;5.00;3.50;;;;;12.13;47.51;96720.78;4860696;28;114827;-76
2021/01/25 09:24:45;;;;;;;;;2.50;2.00;;;;;12.11;47.46;96731.91;4871039;28;103368;-76
2021/01/25 09:27:11;;;;;;;;;2.00;2.00;;;;;12.12;47.86;96738.94;4875983;28;102537;-76
2021/01/25 09:29:38;;;;;;;;;3.00;2.50;;;;;12.11;47.14;96737.31;4877472;28;102447;-76
2021/01/25 09:32:07;;;;;;;;;2.50;2.00;;;;;12.10;47.59;96737.56;4850916;28;102684;-76
2021/01/25 09:34:34;;;;;;;;;2.00;2.00;;;;;12.08;47.01;96735.09;4857478;28;109840;-76
2021/01/25 09:37:03;;;;;;;;;2.25;2.25;;;;;12.10;47.12;96735.69;4841319;28;102468;-76
2021/01/25 09:39:30;;;;;;;;;2.50;2.50;;;;;12.11;47.67;96731.91;4847831;28;102684;-76
2021/01/25 09:41:56;;;;;;;;;3.25;2.50;;;;;12.10;47.38;96738.38;4862421;28;103940;-76
2021/01/25 09:44:23;;;;;;;;;3.00;3.00;;;;;12.10;47.94;96735.69;4869233;28;103884;-76
2021/01/25 09:46:52;;;;;;;;;2.75;2.75;;;;;12.10;47.09;96729.44;4871882;28;102466;-76
2021/01/25 09:49:19;;;;;;;;;3.50;3.25;;;;;12.10;47.56;96732.16;4878986;28;102198;-76
2021/01/25 09:51:46;;;;;;;;;2.25;2.00;;;;;12.09;47.07;96734.03;4855593;28;102434;-76
2021/01/25 09:54:13;;;;;;;;;3.00;3.00;;;;;12.10;47.41;96741.09;4873538;28;105618;-76
2021/01/25 09:56:40;;;;;;;;;2.50;2.25;;;;;12.09;47.81;96744.88;4873196;28;102422;-76
2021/01/25 09:59:07;;;;;;;;;3.00;2.00;;;;;12.09;47.49;96734.03;4872606;28;102363;-76
2021/01/25 10:01:34;;;;;;;;;3.00;2.00;;;;;12.08;46.87;96738.63;4874327;28;102495;-76
2021/01/25 10:04:01;;;;;;;;;2.75;2.25;;;;;12.07;47.34;96742.41;4873988;28;103610;-76
2021/01/25 10:06:30;;;;;;;;;2.00;2.00;;;;;12.08;47.05;96741.34;4870519;28;102281;-76
2021/01/25 10:08:57;;;;;;;;;4.00;2.25;;;;;12.06;47.91;96743.50;4857409;28;102571;-76
2021/01/25 10:11:25;;;;;;;;;2.00;2.00;;;;;12.07;47.48;96744.28;4872803;28;102571;-76
2021/01/25 10:13:51;;;;;;;;;2.00;1.75;;;;;12.07;47.72;96749.72;4867362;28;103819;-76
2021/01/25 10:16:21;;;;;;;;;3.00;2.25;;;;;12.07;47.80;96749.72;4872679;28;102337;-76
2021/01/25 10:18:48;;;;;;;;;3.00;2.00;;;;;12.07;47.73;96752.44;4871786;28;102444;-76
2021/01/25 10:21:19;;;;;;;;;3.00;2.00;;;;;12.07;47.00;96755.13;4874403;28;102526;-76
2021/01/25 10:23:46;;;;;;;;;2.00;2.00;;;;;12.06;47.00;96759.75;4871755;28;103615;-76
2021/01/25 10:26:16;;;;;;;;;5.00;3.50;;;;;12.04;47.32;96748.34;4855698;28;102437;-76
2021/01/25 10:28:43;;;;;;;;;1.75;1.75;;;;;12.05;47.37;96750.00;4873305;28;102237;-76
2021/01/25 10:31:09;;;;;;;;;2.00;2.00;;;;;12.04;47.03;96742.94;4862829;28;102382;-76
2021/01/25 10:33:36;;;;;;;;;3.50;2.50;;;;;12.05;47.84;96749.16;4873502;28;108794;-76
2021/01/25 10:36:03;;;;;;;;;3.50;2.75;;;;;12.05;47.38;96743.75;4875459;28;102831;-76
2021/01/25 10:38:30;;;;;;;;;2.00;2.00;;;;;12.05;47.27;96752.69;4867769;28;102472;-76
2021/01/25 10:40:57;;;;;;;;;3.75;3.00;;;;;12.05;47.48;96749.16;4857847;28;102514;-76
2021/01/25 10:43:25;;;;;;;;;2.00;2.00;;;;;12.04;47.46;96758.38;4875299;28;103677;-76
2021/01/25 10:45:52;;;;;;;;;3.00;2.50;;;;;12.05;47.00;96760.00;4874693;28;102420;-76
2021/01/25 10:48:19;;;;;;;;;3.25;2.50;;;;;12.04;47.61;96752.94;4872848;28;102499;-76
2021/01/25 10:50:46;;;;;;;;;3.25;3.00;;;;;12.05;46.95;96762.72;4857274;28;104131;-76
2021/01/25 10:53:13;;;;;;;;;2.25;2.00;;;;;12.05;47.36;96768.13;4872230;28;103359;-77
2021/01/25 10:55:39;;;;;;;;;2.00;2.00;;;;;12.03;47.25;96764.84;4877176;28;102500;-76
2021/01/25 10:58:06;;;;;;;;;3.00;3.00;;;;;12.03;47.80;96762.13;4870993;28;102367;-76
2021/01/25 11:00:33;;;;;;;;;2.00;1.25;;;;;12.04;47.43;96758.38;4858621;28;102630;-76
2021/01/25 11:03:00;;;;;;;;;4.75;3.00;;;;;12.04;47.01;96771.91;4866069;28;103149;-76
2021/01/25 11:05:26;;;;;;;;;2.50;2.00;;;;;12.01;47.08;96765.13;4872240;28;102341;-76
2021/01/25 11:07:53;;;;;;;;;2.50;2.00;;;;;12.02;46.88;96761.31;4870206;28;102321;-76
2021/01/25 11:10:23;;;;;;;;;2.00;2.00;;;;;12.03;47.39;96768.38;4871594;28;102561;-76
2021/01/25 11:12:49;;;;;;;;;2.00;2.00;;;;;12.03;47.43;96762.97;4871490;28;103630;-76
2021/01/25 11:15:17;;;;;;;;;2.50;2.25;;;;;12.03;47.36;96762.13;4867821;28;102354;-76
2021/01/25 11:17:44;;;;;;;;;2.00;1.00;;;;;12.02;47.02;96760.53;4876533;28;102360;-76
2021/01/25 11:20:11;;;;;;;;;1.75;1.50;;;;;12.02;47.54;96763.25;4856866;28;102518;-76
2021/01/25 11:22:38;;;;;;;;;2.00;2.00;;;;;12.01;47.25;96765.13;4857692;28;103431;-76
2021/01/25 11:25:05;;;;;;;;;4.50;2.00;;;;;12.00;47.17;96777.03;4858283;28;104035;-76
2021/01/25 11:27:32;;;;;;;;;2.25;2.25;;;;;12.01;46.97;96772.44;4868860;28;102843;-76
2021/01/25 11:29:59;;;;;;;;;2.25;2.25;;;;;12.00;46.96;96777.03;4862096;28;102516;-76
2021/01/25 11:32:26;;;;;;;;;2.00;2.00;;;;;12.01;47.46;96781.38;4873913;28;103365;-76